SVA1640 OEJN-OEAB
Flight info
| Callsign | SVA1640 |
|---|---|
| Flight time | 1h 7m |
| Altitude | 23000 |
| Route | RIBAM L677 ABKAR V38 ABH |
| Aircraft | A320/M-SDE3FGHIRWY/LB1 |
Departure
| Time | 2026-05-05 21:43 |
|---|---|
| Airport | King Abdulaziz International Airport (OEJN) |
Arrival
| Time | 2026-05-05 22:50 |
|---|---|
| Airport | Abha International Airport (OEAB) |
| Time | Latitude | Longitude | Altitude | Speed | Heading |
|---|---|---|---|---|---|
| 2026-05-05 20:50 | 21.66230 | 39.17083 | 31 ft | 0 kts | 106° |
| 2026-05-05 21:26 | 21.66234 | 39.17067 | 31 ft | 4 kts | 109° |
| 2026-05-05 21:26 | 21.66244 | 39.17040 | 31 ft | 4 kts | 114° |
| 2026-05-05 21:26 | 21.66256 | 39.17014 | 31 ft | 4 kts | 117° |
| 2026-05-05 21:27 | 21.66267 | 39.16988 | 31 ft | 4 kts | 98° |
| 2026-05-05 21:27 | 21.66265 | 39.16972 | 31 ft | 1 kts | 29° |
| 2026-05-05 21:27 | 21.66261 | 39.16969 | 31 ft | 0 kts | 29° |
| 2026-05-05 21:34 | 21.66262 | 39.16970 | 31 ft | 1 kts | 29° |
| 2026-05-05 21:34 | 21.66289 | 39.16986 | 31 ft | 8 kts | 30° |
| 2026-05-05 21:35 | 21.66351 | 39.17010 | 30 ft | 10 kts | 13° |
| 2026-05-05 21:35 | 21.66411 | 39.16978 | 30 ft | 11 kts | 290° |
| 2026-05-05 21:35 | 21.66393 | 39.16900 | 30 ft | 10 kts | 249° |
| 2026-05-05 21:35 | 21.66370 | 39.16834 | 31 ft | 9 kts | 249° |
| 2026-05-05 21:36 | 21.66356 | 39.16794 | 31 ft | 0 kts | 249° |
| 2026-05-05 21:39 | 21.66349 | 39.16774 | 31 ft | 8 kts | 249° |
| 2026-05-05 21:40 | 21.66333 | 39.16725 | 31 ft | 6 kts | 250° |
| 2026-05-05 21:40 | 21.66320 | 39.16686 | 31 ft | 5 kts | 249° |
| 2026-05-05 21:40 | 21.66304 | 39.16644 | 31 ft | 6 kts | 249° |
| 2026-05-05 21:40 | 21.66291 | 39.16605 | 31 ft | 5 kts | 249° |
| 2026-05-05 21:41 | 21.66279 | 39.16572 | 31 ft | 6 kts | 249° |
| 2026-05-05 21:41 | 21.66251 | 39.16489 | 30 ft | 13 kts | 251° |
| 2026-05-05 21:41 | 21.66288 | 39.16424 | 31 ft | 9 kts | 340° |
| 2026-05-05 21:41 | 21.66315 | 39.16414 | 32 ft | 0 kts | 340° |
| 2026-05-05 21:42 | 21.66417 | 39.16374 | 35 ft | 47 kts | 340° |
| 2026-05-05 21:42 | 21.66933 | 39.16171 | 37 ft | 108 kts | 340° |
| 2026-05-05 21:42 | 21.67802 | 39.15829 | 37 ft | 155 kts | 340° |
| 2026-05-05 21:43 | 21.68910 | 39.15392 | 325 ft | 174 kts | 339° |
| 2026-05-05 21:43 | 21.70025 | 39.14943 | 1157 ft | 167 kts | 340° |
| 2026-05-05 21:43 | 21.71077 | 39.14494 | 1967 ft | 162 kts | 340° |
| 2026-05-05 21:43 | 21.72162 | 39.14037 | 2409 ft | 174 kts | 340° |
| 2026-05-05 21:44 | 21.73369 | 39.13570 | 2615 ft | 195 kts | 341° |
| 2026-05-05 21:44 | 21.74694 | 39.13065 | 2852 ft | 213 kts | 340° |
| 2026-05-05 21:44 | 21.76173 | 39.12499 | 3087 ft | 238 kts | 340° |
| 2026-05-05 21:44 | 21.77786 | 39.11876 | 3559 ft | 251 kts | 340° |
| 2026-05-05 21:45 | 21.79451 | 39.11226 | 4251 ft | 258 kts | 339° |
| 2026-05-05 21:45 | 21.81149 | 39.10557 | 4959 ft | 264 kts | 339° |
| 2026-05-05 21:45 | 21.82890 | 39.09867 | 5622 ft | 269 kts | 338° |
| 2026-05-05 21:45 | 21.84674 | 39.09162 | 6261 ft | 276 kts | 338° |
| 2026-05-05 21:46 | 21.86433 | 39.08312 | 6889 ft | 279 kts | 323° |
| 2026-05-05 21:46 | 21.87738 | 39.06771 | 7500 ft | 282 kts | 296° |
| 2026-05-05 21:46 | 21.88255 | 39.04783 | 8165 ft | 283 kts | 270° |
| 2026-05-05 21:46 | 21.87886 | 39.02720 | 8895 ft | 283 kts | 244° |
| 2026-05-05 21:47 | 21.86694 | 39.01055 | 9653 ft | 283 kts | 219° |
| 2026-05-05 21:47 | 21.85096 | 38.99801 | 10285 ft | 290 kts | 214° |
| 2026-05-05 21:47 | 21.83363 | 38.98536 | 10451 ft | 313 kts | 214° |
| 2026-05-05 21:47 | 21.81499 | 38.97183 | 10573 ft | 335 kts | 214° |
| 2026-05-05 21:48 | 21.79498 | 38.95744 | 10690 ft | 355 kts | 212° |
| 2026-05-05 21:48 | 21.77195 | 38.94711 | 11099 ft | 364 kts | 193° |
| 2026-05-05 21:48 | 21.74698 | 38.94569 | 11696 ft | 368 kts | 175° |
| 2026-05-05 21:48 | 21.72151 | 38.94909 | 12374 ft | 369 kts | 174° |
| 2026-05-05 21:49 | 21.69604 | 38.95280 | 13057 ft | 370 kts | 174° |
| 2026-05-05 21:49 | 21.67048 | 38.95666 | 13671 ft | 372 kts | 173° |
| 2026-05-05 21:49 | 21.64476 | 38.96055 | 14188 ft | 375 kts | 174° |
| 2026-05-05 21:49 | 21.61883 | 38.96444 | 14708 ft | 379 kts | 174° |
| 2026-05-05 21:50 | 21.59261 | 38.96832 | 15198 ft | 382 kts | 174° |
| 2026-05-05 21:50 | 21.56613 | 38.97219 | 15683 ft | 386 kts | 174° |
| 2026-05-05 21:50 | 21.53974 | 38.97603 | 16143 ft | 390 kts | 174° |
| 2026-05-05 21:50 | 21.51274 | 38.97999 | 16610 ft | 393 kts | 174° |
| 2026-05-05 21:51 | 21.48546 | 38.98400 | 17065 ft | 397 kts | 175° |
| 2026-05-05 21:51 | 21.45802 | 38.98807 | 17550 ft | 400 kts | 175° |
| 2026-05-05 21:51 | 21.43038 | 38.99216 | 18003 ft | 404 kts | 175° |
| 2026-05-05 21:51 | 21.40243 | 38.99625 | 18413 ft | 407 kts | 175° |
| 2026-05-05 21:52 | 21.34594 | 39.00451 | 19212 ft | 412 kts | 175° |
| 2026-05-05 21:52 | 21.31745 | 39.00872 | 19613 ft | 415 kts | 175° |
| 2026-05-05 21:52 | 21.28880 | 39.01295 | 20013 ft | 417 kts | 175° |
| 2026-05-05 21:53 | 21.25989 | 39.01721 | 20403 ft | 420 kts | 175° |
| 2026-05-05 21:53 | 21.23129 | 39.02142 | 20779 ft | 422 kts | 175° |
| 2026-05-05 21:53 | 21.20214 | 39.02569 | 21152 ft | 425 kts | 175° |
| 2026-05-05 21:53 | 21.17272 | 39.02995 | 21515 ft | 427 kts | 175° |
| 2026-05-05 21:54 | 21.14317 | 39.03425 | 21881 ft | 430 kts | 175° |
| 2026-05-05 21:54 | 21.11342 | 39.03858 | 22236 ft | 432 kts | 175° |
| 2026-05-05 21:54 | 21.08356 | 39.04290 | 22587 ft | 434 kts | 175° |
| 2026-05-05 21:54 | 21.05358 | 39.04726 | 22823 ft | 436 kts | 175° |
| 2026-05-05 21:55 | 21.02350 | 39.05169 | 22875 ft | 436 kts | 175° |
| 2026-05-05 21:55 | 20.99388 | 39.05604 | 22877 ft | 435 kts | 175° |
| 2026-05-05 21:55 | 20.96386 | 39.06042 | 22876 ft | 435 kts | 175° |
| 2026-05-05 21:55 | 20.93384 | 39.06479 | 22868 ft | 436 kts | 175° |
| 2026-05-05 21:56 | 20.90372 | 39.06918 | 22873 ft | 437 kts | 175° |
| 2026-05-05 21:56 | 20.87360 | 39.07353 | 22870 ft | 437 kts | 175° |
| 2026-05-05 21:56 | 20.84348 | 39.07789 | 22869 ft | 437 kts | 175° |
| 2026-05-05 21:56 | 20.81339 | 39.08228 | 22869 ft | 437 kts | 175° |
| 2026-05-05 21:57 | 20.78326 | 39.08673 | 22869 ft | 437 kts | 175° |
| 2026-05-05 21:57 | 20.75355 | 39.09111 | 22869 ft | 437 kts | 175° |
| 2026-05-05 21:57 | 20.72342 | 39.09574 | 22869 ft | 438 kts | 172° |
| 2026-05-05 21:57 | 20.69394 | 39.10412 | 22868 ft | 442 kts | 163° |
| 2026-05-05 21:58 | 20.66535 | 39.11639 | 22868 ft | 443 kts | 161° |
| 2026-05-05 21:58 | 20.63678 | 39.12889 | 22862 ft | 444 kts | 161° |
| 2026-05-05 21:58 | 20.60817 | 39.14137 | 22866 ft | 444 kts | 161° |
| 2026-05-05 21:58 | 20.57957 | 39.15384 | 22865 ft | 444 kts | 161° |
| 2026-05-05 21:59 | 20.55102 | 39.16630 | 22865 ft | 444 kts | 161° |
| 2026-05-05 21:59 | 20.52241 | 39.17878 | 22865 ft | 444 kts | 161° |
| 2026-05-05 21:59 | 20.49378 | 39.19122 | 22863 ft | 444 kts | 161° |
| 2026-05-05 21:59 | 20.46556 | 39.20345 | 22863 ft | 444 kts | 161° |
| 2026-05-05 22:00 | 20.43695 | 39.21582 | 22860 ft | 444 kts | 161° |
| 2026-05-05 22:00 | 20.40835 | 39.22820 | 22860 ft | 443 kts | 161° |
| 2026-05-05 22:00 | 20.37979 | 39.24059 | 22853 ft | 443 kts | 161° |
| 2026-05-05 22:00 | 20.35115 | 39.25301 | 22858 ft | 444 kts | 161° |
| 2026-05-05 22:01 | 20.32255 | 39.26542 | 22857 ft | 444 kts | 161° |
| 2026-05-05 22:01 | 20.29394 | 39.27783 | 22854 ft | 444 kts | 161° |
| 2026-05-05 22:01 | 20.26530 | 39.29027 | 22852 ft | 445 kts | 161° |
| 2026-05-05 22:01 | 20.23664 | 39.30272 | 22852 ft | 445 kts | 161° |
| 2026-05-05 22:02 | 20.20798 | 39.31515 | 22849 ft | 445 kts | 161° |
| 2026-05-05 22:02 | 20.17976 | 39.32740 | 22849 ft | 444 kts | 161° |
| 2026-05-05 22:02 | 20.15112 | 39.33982 | 22849 ft | 444 kts | 161° |
| 2026-05-05 22:02 | 20.12253 | 39.35221 | 22842 ft | 444 kts | 161° |
| 2026-05-05 22:03 | 20.09396 | 39.36458 | 22843 ft | 443 kts | 161° |
| 2026-05-05 22:03 | 20.06540 | 39.37693 | 22849 ft | 443 kts | 161° |
| 2026-05-05 22:03 | 20.03685 | 39.38925 | 22849 ft | 444 kts | 161° |
| 2026-05-05 22:03 | 20.00822 | 39.40159 | 22846 ft | 444 kts | 161° |
| 2026-05-05 22:04 | 19.97962 | 39.41396 | 22846 ft | 444 kts | 161° |
| 2026-05-05 22:04 | 19.95097 | 39.42635 | 22846 ft | 444 kts | 160° |
| 2026-05-05 22:04 | 19.92270 | 39.43856 | 22846 ft | 445 kts | 161° |
| 2026-05-05 22:04 | 19.89409 | 39.45091 | 22846 ft | 444 kts | 161° |
| 2026-05-05 22:05 | 19.86549 | 39.46325 | 22846 ft | 443 kts | 161° |
| 2026-05-05 22:05 | 19.83692 | 39.47557 | 22846 ft | 444 kts | 161° |
| 2026-05-05 22:05 | 19.80829 | 39.48789 | 22846 ft | 444 kts | 161° |
| 2026-05-05 22:05 | 19.77967 | 39.50018 | 22840 ft | 444 kts | 161° |
| 2026-05-05 22:06 | 19.75104 | 39.51249 | 22841 ft | 444 kts | 161° |
| 2026-05-05 22:06 | 19.72236 | 39.52481 | 22841 ft | 444 kts | 161° |
| 2026-05-05 22:06 | 19.69373 | 39.53714 | 22841 ft | 444 kts | 161° |
| 2026-05-05 22:06 | 19.66546 | 39.54931 | 22841 ft | 444 kts | 161° |
| 2026-05-05 22:07 | 19.63680 | 39.56168 | 22841 ft | 444 kts | 161° |
| 2026-05-05 22:07 | 19.60816 | 39.57404 | 22841 ft | 444 kts | 161° |
| 2026-05-05 22:07 | 19.57954 | 39.58636 | 22836 ft | 444 kts | 161° |
| 2026-05-05 22:07 | 19.55093 | 39.59862 | 22841 ft | 444 kts | 161° |
| 2026-05-05 22:08 | 19.52309 | 39.61296 | 22840 ft | 447 kts | 152° |
| 2026-05-05 22:08 | 19.49774 | 39.63225 | 22842 ft | 451 kts | 142° |
| 2026-05-05 22:08 | 19.47572 | 39.65604 | 22841 ft | 455 kts | 132° |
| 2026-05-05 22:08 | 19.45758 | 39.68310 | 22838 ft | 457 kts | 126° |
| 2026-05-05 22:09 | 19.44002 | 39.71119 | 22836 ft | 457 kts | 126° |
| 2026-05-05 22:09 | 19.42239 | 39.73919 | 22835 ft | 457 kts | 126° |
| 2026-05-05 22:09 | 19.40471 | 39.76719 | 22832 ft | 457 kts | 126° |
| 2026-05-05 22:09 | 19.38699 | 39.79515 | 22832 ft | 457 kts | 127° |
| 2026-05-05 22:10 | 19.36926 | 39.82311 | 22833 ft | 456 kts | 126° |
| 2026-05-05 22:10 | 19.35163 | 39.85097 | 22832 ft | 455 kts | 126° |
| 2026-05-05 22:10 | 19.33406 | 39.87883 | 22833 ft | 455 kts | 126° |
| 2026-05-05 22:10 | 19.31648 | 39.90670 | 22832 ft | 455 kts | 126° |
| 2026-05-05 22:11 | 19.29919 | 39.93409 | 22833 ft | 455 kts | 126° |
| 2026-05-05 22:11 | 19.28158 | 39.96198 | 22832 ft | 455 kts | 126° |
| 2026-05-05 22:11 | 19.26402 | 39.98977 | 22832 ft | 454 kts | 126° |
| 2026-05-05 22:11 | 19.24642 | 40.01758 | 22836 ft | 454 kts | 126° |
| 2026-05-05 22:12 | 19.22884 | 40.04537 | 22828 ft | 454 kts | 126° |
| 2026-05-05 22:12 | 19.21128 | 40.07314 | 22830 ft | 454 kts | 126° |
| 2026-05-05 22:12 | 19.19369 | 40.10091 | 22830 ft | 454 kts | 126° |
| 2026-05-05 22:12 | 19.17611 | 40.12863 | 22830 ft | 454 kts | 126° |
| 2026-05-05 22:13 | 19.15852 | 40.15628 | 22830 ft | 454 kts | 127° |
| 2026-05-05 22:13 | 19.14114 | 40.18361 | 22830 ft | 454 kts | 126° |
| 2026-05-05 22:13 | 19.12356 | 40.21127 | 22830 ft | 454 kts | 126° |
| 2026-05-05 22:13 | 19.10597 | 40.23898 | 22830 ft | 454 kts | 126° |
| 2026-05-05 22:14 | 19.08929 | 40.26742 | 22832 ft | 456 kts | 120° |
| 2026-05-05 22:14 | 19.07658 | 40.29816 | 22826 ft | 459 kts | 112° |
| 2026-05-05 22:14 | 19.06569 | 40.32991 | 22827 ft | 459 kts | 112° |
| 2026-05-05 22:14 | 19.05477 | 40.36164 | 22827 ft | 459 kts | 112° |
| 2026-05-05 22:15 | 19.04379 | 40.39340 | 22827 ft | 460 kts | 112° |
| 2026-05-05 22:15 | 19.03295 | 40.42471 | 22828 ft | 460 kts | 112° |
| 2026-05-05 22:15 | 19.02196 | 40.45643 | 22827 ft | 460 kts | 112° |
| 2026-05-05 22:15 | 19.01095 | 40.48814 | 22826 ft | 460 kts | 112° |
| 2026-05-05 22:16 | 18.99991 | 40.51982 | 22830 ft | 461 kts | 112° |
| 2026-05-05 22:16 | 18.98880 | 40.55160 | 22826 ft | 461 kts | 112° |
| 2026-05-05 22:16 | 18.97768 | 40.58337 | 22827 ft | 461 kts | 112° |
| 2026-05-05 22:16 | 18.96656 | 40.61515 | 22827 ft | 461 kts | 112° |
| 2026-05-05 22:17 | 18.95545 | 40.64693 | 22828 ft | 461 kts | 112° |
| 2026-05-05 22:17 | 18.94437 | 40.67871 | 22827 ft | 461 kts | 112° |
| 2026-05-05 22:17 | 18.93348 | 40.71009 | 22827 ft | 461 kts | 112° |
| 2026-05-05 22:17 | 18.92242 | 40.74196 | 22827 ft | 461 kts | 112° |
| 2026-05-05 22:18 | 18.91136 | 40.77374 | 22824 ft | 461 kts | 112° |
| 2026-05-05 22:18 | 18.90024 | 40.80553 | 22824 ft | 461 kts | 112° |
| 2026-05-05 22:18 | 18.88914 | 40.83723 | 22824 ft | 461 kts | 112° |
| 2026-05-05 22:18 | 18.87805 | 40.86891 | 22825 ft | 461 kts | 112° |
| 2026-05-05 22:19 | 18.86692 | 40.90066 | 22824 ft | 461 kts | 112° |
| 2026-05-05 22:19 | 18.85593 | 40.93207 | 22822 ft | 461 kts | 112° |
| 2026-05-05 22:19 | 18.84484 | 40.96378 | 22824 ft | 462 kts | 112° |
| 2026-05-05 22:19 | 18.83368 | 40.99564 | 22825 ft | 462 kts | 112° |
| 2026-05-05 22:20 | 18.82251 | 41.02739 | 22824 ft | 462 kts | 112° |
| 2026-05-05 22:20 | 18.81132 | 41.05914 | 22824 ft | 462 kts | 112° |
| 2026-05-05 22:20 | 18.80012 | 41.09089 | 22832 ft | 462 kts | 112° |
| 2026-05-05 22:20 | 18.78891 | 41.12266 | 22833 ft | 462 kts | 112° |
| 2026-05-05 22:21 | 18.77772 | 41.15439 | 22829 ft | 461 kts | 112° |
| 2026-05-05 22:21 | 18.76660 | 41.18601 | 22839 ft | 461 kts | 112° |
| 2026-05-05 22:21 | 18.75559 | 41.21736 | 22838 ft | 461 kts | 112° |
| 2026-05-05 22:21 | 18.74443 | 41.24911 | 22839 ft | 461 kts | 112° |
| 2026-05-05 22:22 | 18.73325 | 41.28082 | 22849 ft | 461 kts | 112° |
| 2026-05-05 22:22 | 18.72206 | 41.31251 | 22849 ft | 461 kts | 112° |
| 2026-05-05 22:22 | 18.71084 | 41.34418 | 22849 ft | 461 kts | 112° |
| 2026-05-05 22:22 | 18.69961 | 41.37581 | 22858 ft | 461 kts | 112° |
| 2026-05-05 22:23 | 18.68840 | 41.40748 | 22857 ft | 461 kts | 112° |
| 2026-05-05 22:23 | 18.67719 | 41.43917 | 22868 ft | 461 kts | 112° |
| 2026-05-05 22:23 | 18.66600 | 41.47075 | 22868 ft | 461 kts | 112° |
| 2026-05-05 22:23 | 18.65493 | 41.50191 | 22868 ft | 461 kts | 112° |
| 2026-05-05 22:24 | 18.64371 | 41.53350 | 22879 ft | 461 kts | 112° |
| 2026-05-05 22:24 | 18.63249 | 41.56510 | 22873 ft | 461 kts | 112° |
| 2026-05-05 22:24 | 18.62130 | 41.59672 | 22877 ft | 461 kts | 112° |
| 2026-05-05 22:24 | 18.61009 | 41.62840 | 22889 ft | 461 kts | 112° |
| 2026-05-05 22:25 | 18.59886 | 41.66005 | 22887 ft | 460 kts | 112° |
| 2026-05-05 22:25 | 18.58764 | 41.69159 | 22896 ft | 461 kts | 112° |
| 2026-05-05 22:25 | 18.57655 | 41.72268 | 22896 ft | 460 kts | 112° |
| 2026-05-05 22:25 | 18.56529 | 41.75425 | 22895 ft | 460 kts | 112° |
| 2026-05-05 22:26 | 18.55405 | 41.78583 | 22907 ft | 460 kts | 112° |
| 2026-05-05 22:26 | 18.54282 | 41.81742 | 22907 ft | 460 kts | 112° |
| 2026-05-05 22:26 | 18.53320 | 41.84950 | 22906 ft | 461 kts | 104° |
| 2026-05-05 22:26 | 18.52671 | 41.88263 | 22927 ft | 462 kts | 103° |
| 2026-05-05 22:27 | 18.52029 | 41.91577 | 22923 ft | 462 kts | 103° |
| 2026-05-05 22:27 | 18.51379 | 41.94898 | 22834 ft | 468 kts | 103° |
| 2026-05-05 22:27 | 18.50703 | 41.98324 | 22134 ft | 483 kts | 103° |
| 2026-05-05 22:27 | 18.50027 | 42.01735 | 21408 ft | 480 kts | 103° |
| 2026-05-05 22:28 | 18.49348 | 42.05163 | 20725 ft | 475 kts | 103° |
| 2026-05-05 22:28 | 18.48683 | 42.08541 | 20046 ft | 469 kts | 103° |
| 2026-05-05 22:28 | 18.48028 | 42.11880 | 19389 ft | 462 kts | 103° |
| 2026-05-05 22:28 | 18.47392 | 42.15140 | 18732 ft | 443 kts | 102° |
| 2026-05-05 22:29 | 18.47168 | 42.18299 | 18077 ft | 426 kts | 86° |
| 2026-05-05 22:29 | 18.47845 | 42.21266 | 17401 ft | 411 kts | 68° |
| 2026-05-05 22:29 | 18.49101 | 42.23893 | 16867 ft | 393 kts | 63° |
| 2026-05-05 22:29 | 18.50363 | 42.26372 | 16355 ft | 377 kts | 63° |
| 2026-05-05 22:30 | 18.51521 | 42.28751 | 15867 ft | 362 kts | 69° |
| 2026-05-05 22:30 | 18.52350 | 42.31211 | 15268 ft | 351 kts | 77° |
| 2026-05-05 22:30 | 18.52545 | 42.33715 | 14665 ft | 339 kts | 99° |
| 2026-05-05 22:30 | 18.51840 | 42.36038 | 14070 ft | 331 kts | 121° |
| 2026-05-05 22:31 | 18.50441 | 42.37921 | 13458 ft | 323 kts | 137° |
| 2026-05-05 22:31 | 18.48649 | 42.39308 | 12808 ft | 318 kts | 148° |
| 2026-05-05 22:31 | 18.46777 | 42.40504 | 12334 ft | 309 kts | 149° |
| 2026-05-05 22:31 | 18.44915 | 42.41515 | 12070 ft | 293 kts | 154° |
| 2026-05-05 22:32 | 18.43146 | 42.42375 | 11835 ft | 277 kts | 155° |
| 2026-05-05 22:32 | 18.41517 | 42.43347 | 11533 ft | 265 kts | 142° |
| 2026-05-05 22:32 | 18.40195 | 42.44696 | 11139 ft | 266 kts | 130° |
| 2026-05-05 22:32 | 18.39037 | 42.46218 | 10823 ft | 265 kts | 128° |
| 2026-05-05 22:33 | 18.37908 | 42.47716 | 10512 ft | 259 kts | 128° |
| 2026-05-05 22:33 | 18.36777 | 42.49185 | 10212 ft | 255 kts | 129° |
| 2026-05-05 22:33 | 18.35679 | 42.50603 | 9916 ft | 245 kts | 128° |
| 2026-05-05 22:33 | 18.34627 | 42.51964 | 9616 ft | 235 kts | 128° |
| 2026-05-05 22:34 | 18.33614 | 42.53274 | 9331 ft | 228 kts | 128° |
| 2026-05-05 22:34 | 18.32636 | 42.54540 | 9071 ft | 220 kts | 128° |
| 2026-05-05 22:34 | 18.31699 | 42.55751 | 8798 ft | 207 kts | 128° |
| 2026-05-05 22:34 | 18.30821 | 42.56887 | 8555 ft | 193 kts | 128° |
| 2026-05-05 22:35 | 18.29998 | 42.57951 | 8327 ft | 181 kts | 128° |
| 2026-05-05 22:35 | 18.29239 | 42.58932 | 8109 ft | 167 kts | 128° |
| 2026-05-05 22:35 | 18.28517 | 42.59866 | 7920 ft | 163 kts | 128° |
| 2026-05-05 22:35 | 18.27807 | 42.60784 | 7812 ft | 161 kts | 128° |
| 2026-05-05 22:36 | 18.27100 | 42.61697 | 7581 ft | 160 kts | 128° |
| 2026-05-05 22:36 | 18.26399 | 42.62607 | 7350 ft | 160 kts | 128° |
| 2026-05-05 22:36 | 18.25704 | 42.63512 | 7147 ft | 160 kts | 129° |
| 2026-05-05 22:36 | 18.25013 | 42.64403 | 6902 ft | 159 kts | 129° |
| 2026-05-05 22:37 | 18.24319 | 42.65295 | 7032 ft | 166 kts | 129° |
| 2026-05-05 22:37 | 18.23546 | 42.66294 | 7603 ft | 186 kts | 129° |
| 2026-05-05 22:37 | 18.22693 | 42.67377 | 8098 ft | 194 kts | 129° |
| 2026-05-05 22:37 | 18.21823 | 42.68444 | 8606 ft | 191 kts | 134° |
| 2026-05-05 22:38 | 18.20778 | 42.69289 | 9098 ft | 190 kts | 149° |
| 2026-05-05 22:38 | 18.19558 | 42.69857 | 9514 ft | 194 kts | 160° |
| 2026-05-05 22:38 | 18.18246 | 42.70259 | 9918 ft | 198 kts | 165° |
| 2026-05-05 22:38 | 18.16908 | 42.70563 | 10336 ft | 201 kts | 168° |
| 2026-05-05 22:39 | 18.15508 | 42.70729 | 10744 ft | 205 kts | 174° |
| 2026-05-05 22:39 | 18.14064 | 42.70776 | 11054 ft | 211 kts | 177° |
| 2026-05-05 22:39 | 18.12579 | 42.70780 | 11409 ft | 216 kts | 177° |
| 2026-05-05 22:39 | 18.11072 | 42.70775 | 11799 ft | 217 kts | 178° |
| 2026-05-05 22:40 | 18.09566 | 42.70796 | 12226 ft | 217 kts | 175° |
| 2026-05-05 22:40 | 18.08058 | 42.70893 | 12591 ft | 220 kts | 173° |
| 2026-05-05 22:40 | 18.06480 | 42.71029 | 12710 ft | 235 kts | 172° |
| 2026-05-05 22:40 | 18.04841 | 42.71183 | 12855 ft | 246 kts | 172° |
| 2026-05-05 22:41 | 18.03138 | 42.71515 | 12960 ft | 252 kts | 158° |
| 2026-05-05 22:41 | 18.01623 | 42.72434 | 13058 ft | 252 kts | 136° |
| 2026-05-05 22:41 | 18.00607 | 42.73915 | 13133 ft | 252 kts | 112° |
| 2026-05-05 22:41 | 18.00306 | 42.75720 | 13224 ft | 255 kts | 87° |
| 2026-05-05 22:42 | 18.00803 | 42.77504 | 13347 ft | 259 kts | 63° |
| 2026-05-05 22:42 | 18.01730 | 42.79137 | 13449 ft | 261 kts | 62° |
| 2026-05-05 22:42 | 18.02673 | 42.80773 | 13361 ft | 263 kts | 62° |
| 2026-05-05 22:42 | 18.03708 | 42.82369 | 12983 ft | 268 kts | 47° |
| 2026-05-05 22:43 | 18.05289 | 42.83372 | 12598 ft | 276 kts | 17° |
| 2026-05-05 22:43 | 18.07210 | 42.83375 | 12199 ft | 283 kts | 343° |
| 2026-05-05 22:43 | 18.08884 | 42.82295 | 11816 ft | 287 kts | 316° |
| 2026-05-05 22:43 | 18.10286 | 42.80795 | 11426 ft | 288 kts | 315° |
| 2026-05-05 22:44 | 18.11664 | 42.79296 | 11039 ft | 282 kts | 315° |
| 2026-05-05 22:44 | 18.13008 | 42.77831 | 10661 ft | 276 kts | 315° |
| 2026-05-05 22:44 | 18.14373 | 42.76500 | 10269 ft | 257 kts | 323° |
| 2026-05-05 22:44 | 18.14725 | 42.76212 | 10171 ft | 252 kts | 324° |
| 2026-05-05 22:47 | 18.15896 | 42.75410 | 9590 ft | 244 kts | 333° |
| 2026-05-05 22:48 | 18.17357 | 42.74622 | 9420 ft | 228 kts | 334° |
| 2026-05-05 22:48 | 18.18532 | 42.73652 | 9379 ft | 206 kts | 309° |
| 2026-05-05 22:48 | 18.19302 | 42.72399 | 8966 ft | 203 kts | 300° |
| 2026-05-05 22:48 | 18.19989 | 42.71107 | 8509 ft | 202 kts | 301° |
| 2026-05-05 22:49 | 18.20765 | 42.69901 | 8030 ft | 196 kts | 309° |
| 2026-05-05 22:49 | 18.21616 | 42.68808 | 7575 ft | 188 kts | 310° |
| 2026-05-05 22:49 | 18.22411 | 42.67764 | 7202 ft | 177 kts | 308° |
| 2026-05-05 22:49 | 18.23146 | 42.66807 | 6901 ft | 165 kts | 309° |
| 2026-05-05 22:50 | 18.23798 | 42.65976 | 6867 ft | 116 kts | 309° |
| 2026-05-05 22:50 | 18.24123 | 42.65547 | 6873 ft | 48 kts | 309° |
| 2026-05-05 22:50 | 18.24294 | 42.65327 | 6870 ft | 24 kts | 307° |
| 2026-05-05 22:50 | 18.24337 | 42.65243 | 6872 ft | 11 kts | 296° |
| 2026-05-05 22:51 | 18.24358 | 42.65165 | 6872 ft | 12 kts | 280° |
| 2026-05-05 22:51 | 18.24373 | 42.65057 | 6856 ft | 17 kts | 276° |
| 2026-05-05 22:51 | 18.24377 | 42.65018 | 6849 ft | 2 kts | 277° |
| 2026-05-05 22:51 | 18.24380 | 42.64995 | 6849 ft | 3 kts | 275° |
| 2026-05-05 22:52 | 18.24377 | 42.64980 | 6849 ft | 1 kts | 253° |
| 2026-05-05 22:52 | 18.24347 | 42.64957 | 6849 ft | 10 kts | 192° |
| 2026-05-05 22:52 | 18.24294 | 42.64990 | 6850 ft | 8 kts | 128° |
| 2026-05-05 22:52 | 18.24263 | 42.65030 | 6858 ft | 6 kts | 129° |
| 2026-05-05 22:53 | 18.24244 | 42.65054 | 6859 ft | 5 kts | 129° |
| 2026-05-05 22:53 | 18.24215 | 42.65092 | 6863 ft | 8 kts | 128° |
| 2026-05-05 22:53 | 18.24177 | 42.65142 | 6863 ft | 10 kts | 129° |
| 2026-05-05 22:53 | 18.24131 | 42.65202 | 6856 ft | 11 kts | 128° |
| 2026-05-05 22:54 | 18.24078 | 42.65270 | 6861 ft | 13 kts | 130° |
| 2026-05-05 22:54 | 18.24019 | 42.65346 | 6864 ft | 14 kts | 128° |
| 2026-05-05 22:54 | 18.23955 | 42.65430 | 6865 ft | 15 kts | 129° |
| 2026-05-05 22:54 | 18.23885 | 42.65521 | 6864 ft | 17 kts | 129° |
| 2026-05-05 22:55 | 18.23812 | 42.65615 | 6873 ft | 16 kts | 130° |
| 2026-05-05 22:55 | 18.23740 | 42.65706 | 6873 ft | 16 kts | 128° |
| 2026-05-05 22:55 | 18.23668 | 42.65799 | 6869 ft | 16 kts | 130° |
| 2026-05-05 22:55 | 18.23595 | 42.65892 | 6872 ft | 17 kts | 130° |
| 2026-05-05 22:56 | 18.23571 | 42.65922 | 6870 ft | 0 kts | 129° |
| 2026-05-05 22:56 | 18.23565 | 42.65928 | 6870 ft | 5 kts | 142° |
| 2026-05-05 22:56 | 18.23522 | 42.65891 | 6870 ft | 8 kts | 227° |
| 2026-05-05 22:57 | 18.23494 | 42.65868 | 6872 ft | 0 kts | 217° |